Albion, Illinois
Current Conditions -  °F | °C
As of 6:55 AM on Friday 24 Oct 2014 (Local Time) from KFWC Reporting Station
Broken Clouds Broken Clouds  
Wind Chill: 49°   Ceiling: 5500
Heat Index: 49°   Visibility: 10mi
Dew Point: 46°   Wind: 3mph
Humidity: 89%   Direction: 210°SSW
Pressure: 30.1"   Gusts: NA
Location:  38.38°N, 88.06°W
Report Text: KFWC 241155Z AUTO 21003KT 10SM SCT036 BKN055 BKN070 10/08 A3010 RMK AO1 T00960078 10101 20066
Loading
Personal Weather Stations






























Interactive Weather Map New forecast layout! Learn more

10-Day Weather Forecast

Advertisements
Track Severe Weather on mobile